createdAt,value
2023-01-09T00:02:21.605Z,3.83
2023-01-09T00:07:24.654Z,3.83
2023-01-09T00:12:27.762Z,3.85
2023-01-09T00:17:31.892Z,3.86
2023-01-09T00:22:34.896Z,3.88
2023-01-09T00:27:37.933Z,3.89
2023-01-09T00:32:41.524Z,3.92
2023-01-09T00:37:45.356Z,3.90
2023-01-09T00:42:54.668Z,3.83
2023-01-09T00:48:11.537Z,3.85
2023-01-09T00:53:20.535Z,3.87
2023-01-09T00:58:24.079Z,3.85
2023-01-09T01:03:28.317Z,3.87
2023-01-09T01:08:31.364Z,3.89
2023-01-09T01:13:34.434Z,3.94
2023-01-09T01:18:39.981Z,3.94
2023-01-09T01:23:43.707Z,3.91
2023-01-09T01:28:46.723Z,3.91
2023-01-09T01:33:49.921Z,3.94
2023-01-09T01:38:53.333Z,3.94
2023-01-09T01:44:07.664Z,3.94
2023-01-09T01:49:16.958Z,3.92
2023-01-09T01:54:26.576Z,3.93
2023-01-09T01:59:41.188Z,3.95
2023-01-09T02:04:45.526Z,4.00
2023-01-09T02:09:49.447Z,4.04
2023-01-09T02:15:14.880Z,4.07
2023-01-09T02:20:36.839Z,4.07
2023-01-09T02:26:13.624Z,4.05
2023-01-09T02:31:44.368Z,4.02
2023-01-09T02:37:22.709Z,4.06
2023-01-09T02:42:27.288Z,4.10
2023-01-09T02:47:30.260Z,4.13
2023-01-09T02:52:54.457Z,4.13
2023-01-09T02:58:12.109Z,4.06
2023-01-09T03:03:40.599Z,4.04
2023-01-09T03:08:50.603Z,4.06
2023-01-09T03:14:08.563Z,4.11
2023-01-09T03:19:19.275Z,4.13
2023-01-09T03:24:22.342Z,4.10
2023-01-09T03:29:25.421Z,4.07
2023-01-09T03:34:28.431Z,4.08
2023-01-09T03:39:33.068Z,4.12
2023-01-09T03:44:36.076Z,4.15
2023-01-09T03:49:39.826Z,4.16
2023-01-09T03:54:42.901Z,4.14
2023-01-09T03:59:45.916Z,4.14
2023-01-09T04:04:49.125Z,4.13
2023-01-09T04:09:52.036Z,4.16
2023-01-09T04:14:55.125Z,4.23
2023-01-09T04:20:00.249Z,4.26
2023-01-09T04:25:04.212Z,4.20
2023-01-09T04:30:09.132Z,4.17
2023-01-09T04:35:12.597Z,4.16
2023-01-09T04:40:15.769Z,4.18
2023-01-09T04:45:18.773Z,4.22
2023-01-09T04:50:21.881Z,4.27
2023-01-09T04:55:24.995Z,4.31
2023-01-09T05:00:28.498Z,4.31
2023-01-09T05:05:31.709Z,4.31
2023-01-09T05:10:34.730Z,4.28
2023-01-09T05:15:37.921Z,4.29
2023-01-09T05:20:40.927Z,4.33
2023-01-09T05:25:44.133Z,4.38
2023-01-09T05:30:48.370Z,4.42
2023-01-09T05:35:51.473Z,4.45
2023-01-09T05:40:54.580Z,4.44
2023-01-09T05:45:57.698Z,4.40
2023-01-09T05:51:01.108Z,4.43
2023-01-09T05:56:04.531Z,4.42
2023-01-09T06:01:08.273Z,4.41
2023-01-09T06:06:11.341Z,4.40
2023-01-09T06:11:14.465Z,4.39
2023-01-09T06:16:17.719Z,4.41
2023-01-09T06:21:21.017Z,4.42
2023-01-09T06:26:26.148Z,4.41
2023-01-09T06:31:29.410Z,4.40
2023-01-09T06:36:32.742Z,4.38
2023-01-09T06:41:35.859Z,4.42
2023-01-09T06:46:39.771Z,4.44
2023-01-09T06:51:42.876Z,4.48
2023-01-09T06:56:46.211Z,4.44
2023-01-09T07:01:49.389Z,4.42
2023-01-09T07:06:52.606Z,4.41
2023-01-09T07:11:55.814Z,4.42
2023-01-09T07:16:58.816Z,4.43
2023-01-09T07:22:01.836Z,4.44
2023-01-09T07:27:05.038Z,4.49
2023-01-09T07:32:08.446Z,4.53
2023-01-09T07:37:11.652Z,4.54
2023-01-09T07:42:15.792Z,4.51
2023-01-09T07:47:18.896Z,4.51
2023-01-09T07:52:22.208Z,4.57
2023-01-09T07:57:25.304Z,4.60
2023-01-09T08:02:28.603Z,4.62
2023-01-09T08:07:31.949Z,4.63
2023-01-09T08:12:35.139Z,4.68
2023-01-09T08:17:40.646Z,4.74
2023-01-09T08:22:50.895Z,4.73
2023-01-09T08:27:54.120Z,4.72
2023-01-09T08:32:57.297Z,4.75
2023-01-09T08:38:00.403Z,4.77
2023-01-09T08:43:24.000Z,4.82
2023-01-09T08:48:27.097Z,4.91
2023-01-09T08:53:31.647Z,4.94
2023-01-09T08:58:35.280Z,4.93
2023-01-09T09:03:38.362Z,4.96
2023-01-09T09:08:41.371Z,5.01
2023-01-09T09:13:44.673Z,5.02
2023-01-09T09:18:47.769Z,5.06
2023-01-09T09:23:50.797Z,5.11
2023-01-09T09:28:54.397Z,5.17
2023-01-09T09:33:57.606Z,5.25
2023-01-09T09:39:02.979Z,5.26
2023-01-09T09:44:48.335Z,5.25
2023-01-09T09:50:06.524Z,5.26
2023-01-09T09:55:27.558Z,5.27
2023-01-09T10:00:31.578Z,5.32
2023-01-09T10:05:39.958Z,5.29
2023-01-09T10:10:54.156Z,5.31
2023-01-09T10:16:07.999Z,5.37
2023-01-09T10:21:21.970Z,5.38
2023-01-09T10:26:48.639Z,5.36
2023-01-09T10:32:01.485Z,5.32
2023-01-09T10:37:20.370Z,5.32
2023-01-09T10:42:36.880Z,5.33
2023-01-09T10:47:43.323Z,5.32
2023-01-09T10:52:49.209Z,5.32
2023-01-09T10:58:02.534Z,5.35
2023-01-09T11:03:06.742Z,5.32
2023-01-09T11:08:09.721Z,5.36
2023-01-09T11:13:19.588Z,5.44
2023-01-09T11:18:25.104Z,5.41
2023-01-09T11:23:32.978Z,5.38
2023-01-09T11:28:36.173Z,5.41
2023-01-09T11:33:50.002Z,5.41
2023-01-09T11:38:57.085Z,5.38
2023-01-09T11:44:06.379Z,5.35
2023-01-09T11:49:12.671Z,5.36
2023-01-09T11:54:26.827Z,5.41
2023-01-09T11:59:31.669Z,5.39
2023-01-09T12:04:43.303Z,5.34
2023-01-09T12:10:01.352Z,5.35
2023-01-09T12:15:37.105Z,5.39
2023-01-09T12:21:21.189Z,5.34
2023-01-09T12:26:32.874Z,5.29
2023-01-09T12:32:07.005Z,5.30
2023-01-09T12:37:50.261Z,5.33
2023-01-09T12:43:03.615Z,5.33
2023-01-09T12:49:07.127Z,5.27
2023-01-09T12:54:19.661Z,5.28
2023-01-09T12:59:45.196Z,5.26
2023-01-09T13:05:07.152Z,5.24
2023-01-09T13:10:38.097Z,5.23
2023-01-09T13:15:45.991Z,5.24
2023-01-09T13:20:57.012Z,5.28
2023-01-09T13:26:07.053Z,5.29
2023-01-09T13:31:28.581Z,5.24
2023-01-09T13:36:40.675Z,5.21
2023-01-09T13:42:13.133Z,5.18
2023-01-09T13:47:22.141Z,5.14
2023-01-09T13:52:40.120Z,5.14
2023-01-09T13:58:06.026Z,5.18
2023-01-09T14:03:22.596Z,5.18
2023-01-09T14:08:31.691Z,5.15
2023-01-09T14:13:37.735Z,5.13
2023-01-09T14:18:53.621Z,5.07
2023-01-09T14:24:06.644Z,5.09
2023-01-09T14:29:29.496Z,5.08
2023-01-09T14:34:39.179Z,5.06
2023-01-09T14:39:46.534Z,5.02
2023-01-09T14:44:59.628Z,4.99
2023-01-09T14:50:37.966Z,4.95
2023-01-09T14:55:58.168Z,4.95
2023-01-09T15:01:07.085Z,4.97
2023-01-09T15:06:21.238Z,4.98
2023-01-09T15:11:26.080Z,4.93
2023-01-09T15:16:31.203Z,4.93
2023-01-09T15:21:34.385Z,4.97
2023-01-09T15:26:39.434Z,4.97
2023-01-09T15:31:47.118Z,4.98
2023-01-09T15:36:52.873Z,4.99
2023-01-09T15:42:15.378Z,4.98
2023-01-09T15:47:24.801Z,4.92
2023-01-09T15:52:28.246Z,4.90
2023-01-09T15:57:35.616Z,4.92
2023-01-09T16:03:04.681Z,4.94
2023-01-09T16:08:20.895Z,4.92
2023-01-09T16:13:28.023Z,4.89
2023-01-09T16:18:37.444Z,4.94
2023-01-09T16:24:12.306Z,4.96
2023-01-09T16:29:37.522Z,4.96
2023-01-09T16:34:44.295Z,4.92
2023-01-09T16:40:22.641Z,4.91
2023-01-09T16:45:31.624Z,4.93
2023-01-09T16:50:34.799Z,4.98
2023-01-09T16:55:38.919Z,5.04
2023-01-09T17:00:42.432Z,5.03
2023-01-09T17:05:56.674Z,5.00
2023-01-09T17:10:59.919Z,5.01
2023-01-09T17:16:05.020Z,5.04
2023-01-09T17:21:24.247Z,5.05
2023-01-09T17:26:46.298Z,5.10
2023-01-09T17:31:49.528Z,5.11
2023-01-09T17:36:55.790Z,5.22
2023-01-09T17:42:02.077Z,5.26
2023-01-09T17:47:06.323Z,5.27
2023-01-09T17:52:09.407Z,5.17
2023-01-09T17:57:17.623Z,5.11
2023-01-09T18:02:20.899Z,5.18
2023-01-09T18:07:24.064Z,5.22
2023-01-09T18:12:27.377Z,5.30
2023-01-09T18:17:30.572Z,5.38
2023-01-09T18:22:34.704Z,5.42
2023-01-09T18:27:39.675Z,5.38
2023-01-09T18:32:42.860Z,5.38
2023-01-09T18:37:45.972Z,5.39
2023-01-09T18:42:49.074Z,5.41
2023-01-09T18:47:52.802Z,5.45
2023-01-09T18:52:56.434Z,5.48
2023-01-09T18:57:59.620Z,5.54
2023-01-09T19:03:02.867Z,5.52
2023-01-09T19:08:06.951Z,5.44
2023-01-09T19:13:10.448Z,5.43
2023-01-09T19:18:16.941Z,5.41
2023-01-09T19:23:24.793Z,5.34
2023-01-09T19:28:27.984Z,5.40
2023-01-09T19:33:31.318Z,5.45
2023-01-09T19:38:34.421Z,5.54
2023-01-09T19:43:39.392Z,5.54
2023-01-09T19:48:43.691Z,5.54
2023-01-09T19:53:53.720Z,5.51
2023-01-09T19:59:01.037Z,5.45
2023-01-09T20:04:10.302Z,5.41
2023-01-09T20:09:18.175Z,5.32
2023-01-09T20:14:22.733Z,5.33
2023-01-09T20:19:26.697Z,5.38
2023-01-09T20:24:30.045Z,5.46
2023-01-09T20:29:34.426Z,5.54
2023-01-09T20:34:37.567Z,5.64
2023-01-09T20:39:40.762Z,5.62
2023-01-09T20:44:43.864Z,5.58
2023-01-09T20:49:47.229Z,5.55
2023-01-09T20:54:50.376Z,5.52
2023-01-09T20:59:53.541Z,5.53
2023-01-09T21:04:56.643Z,5.56
2023-01-09T21:10:00.133Z,5.59
2023-01-09T21:15:09.086Z,5.59
2023-01-09T21:20:15.250Z,5.63
2023-01-09T21:25:18.452Z,5.65
2023-01-09T21:30:21.869Z,5.59
2023-01-09T21:35:25.637Z,5.57
2023-01-09T21:40:29.092Z,5.61
2023-01-09T21:45:51.195Z,5.61
2023-01-09T21:50:54.350Z,5.69
2023-01-09T21:55:57.363Z,5.70
2023-01-09T22:01:00.931Z,5.75
2023-01-09T22:06:05.518Z,5.72
2023-01-09T22:11:08.585Z,5.71
2023-01-09T22:16:13.631Z,5.75
2023-01-09T22:21:17.792Z,5.75
2023-01-09T22:26:21.956Z,5.76
2023-01-09T22:31:28.620Z,5.84
2023-01-09T22:36:32.709Z,5.84
2023-01-09T22:41:35.872Z,5.80
2023-01-09T22:46:40.197Z,5.76
2023-01-09T22:51:44.014Z,5.72
2023-01-09T22:56:50.460Z,5.72
2023-01-09T23:01:54.582Z,5.75
2023-01-09T23:06:57.731Z,5.75
2023-01-09T23:12:04.026Z,5.75
2023-01-09T23:17:11.016Z,5.69
2023-01-09T23:22:14.329Z,5.60
2023-01-09T23:27:17.428Z,5.57
2023-01-09T23:32:20.540Z,5.55
2023-01-09T23:37:23.750Z,5.53
2023-01-09T23:42:45.793Z,5.53
2023-01-09T23:47:49.007Z,5.58
2023-01-09T23:52:52.112Z,5.58
2023-01-09T23:57:56.247Z,5.59
